sensor_id;sensor_type;location;lat;lon;timestamp;temperature;humidity
3281;DHT22;1652;51.318;6.202;2022-09-20T00:01:16;11.80;99.90
3281;DHT22;1652;51.318;6.202;2022-09-20T00:03:45;11.80;99.90
3281;DHT22;1652;51.318;6.202;2022-09-20T00:06:15;11.80;99.90
3281;DHT22;1652;51.318;6.202;2022-09-20T00:08:43;11.80;99.90
3281;DHT22;1652;51.318;6.202;2022-09-20T00:11:16;11.90;99.90
3281;DHT22;1652;51.318;6.202;2022-09-20T00:13:46;11.90;99.90
3281;DHT22;1652;51.318;6.202;2022-09-20T00:16:16;11.90;99.90
3281;DHT22;1652;51.318;6.202;2022-09-20T00:18:47;11.90;99.90
3281;DHT22;1652;51.318;6.202;2022-09-20T00:21:20;12.00;99.90
3281;DHT22;1652;51.318;6.202;2022-09-20T00:23:48;12.00;99.90
3281;DHT22;1652;51.318;6.202;2022-09-20T00:26:15;12.10;99.90
3281;DHT22;1652;51.318;6.202;2022-09-20T00:28:43;12.00;99.90
3281;DHT22;1652;51.318;6.202;2022-09-20T00:31:10;12.00;99.90
3281;DHT22;1652;51.318;6.202;2022-09-20T00:33:37;11.90;99.90
3281;DHT22;1652;51.318;6.202;2022-09-20T00:36:23;11.90;99.90
3281;DHT22;1652;51.318;6.202;2022-09-20T00:38:58;12.00;99.90
3281;DHT22;1652;51.318;6.202;2022-09-20T00:41:26;11.90;99.90
3281;DHT22;1652;51.318;6.202;2022-09-20T00:43:53;12.00;99.90
3281;DHT22;1652;51.318;6.202;2022-09-20T00:46:41;11.90;99.90
3281;DHT22;1652;51.318;6.202;2022-09-20T00:49:25;11.90;99.90
3281;DHT22;1652;51.318;6.202;2022-09-20T00:51:58;12.00;99.90
3281;DHT22;1652;51.318;6.202;2022-09-20T00:54:27;12.00;99.90
3281;DHT22;1652;51.318;6.202;2022-09-20T00:56:56;12.00;99.90
3281;DHT22;1652;51.318;6.202;2022-09-20T00:59:26;11.90;99.90
3281;DHT22;1652;51.318;6.202;2022-09-20T01:02:00;11.90;99.90
3281;DHT22;1652;51.318;6.202;2022-09-20T01:04:29;11.90;99.90
3281;DHT22;1652;51.318;6.202;2022-09-20T01:06:58;11.90;99.90
3281;DHT22;1652;51.318;6.202;2022-09-20T01:09:26;11.90;99.90
3281;DHT22;1652;51.318;6.202;2022-09-20T01:11:55;11.90;99.90
3281;DHT22;1652;51.318;6.202;2022-09-20T01:14:24;11.90;99.90
3281;DHT22;1652;51.318;6.202;2022-09-20T01:16:56;11.90;99.90
3281;DHT22;1652;51.318;6.202;2022-09-20T01:23:09;11.90;99.90
3281;DHT22;1652;51.318;6.202;2022-09-20T01:28:30;11.90;99.90
3281;DHT22;1652;51.318;6.202;2022-09-20T01:31:07;11.90;99.90
3281;DHT22;1652;51.318;6.202;2022-09-20T01:34:14;11.80;99.90
3281;DHT22;1652;51.318;6.202;2022-09-20T01:39:32;11.80;99.90
3281;DHT22;1652;51.318;6.202;2022-09-20T01:42:05;11.80;99.90
3281;DHT22;1652;51.318;6.202;2022-09-20T01:47:56;11.80;99.90
3281;DHT22;1652;51.318;6.202;2022-09-20T01:56:31;11.70;99.90
3281;DHT22;1652;51.318;6.202;2022-09-20T02:13:32;11.80;99.90
3281;DHT22;1652;51.318;6.202;2022-09-20T02:22:25;11.70;99.90
3281;DHT22;1652;51.318;6.202;2022-09-20T02:25:13;11.70;99.90
3281;DHT22;1652;51.318;6.202;2022-09-20T02:30:38;11.80;99.90
3281;DHT22;1652;51.318;6.202;2022-09-20T02:33:59;11.80;99.90
3281;DHT22;1652;51.318;6.202;2022-09-20T02:36:45;11.70;99.90
3281;DHT22;1652;51.318;6.202;2022-09-20T02:39:22;11.70;99.90
3281;DHT22;1652;51.318;6.202;2022-09-20T02:47:37;11.60;99.90
3281;DHT22;1652;51.318;6.202;2022-09-20T03:07:00;11.60;99.90
3281;DHT22;1652;51.318;6.202;2022-09-20T03:09:42;11.70;99.90
3281;DHT22;1652;51.318;6.202;2022-09-20T03:15:18;11.70;99.90
3281;DHT22;1652;51.318;6.202;2022-09-20T03:18:15;11.70;99.90
3281;DHT22;1652;51.318;6.202;2022-09-20T03:20:51;11.70;99.90
3281;DHT22;1652;51.318;6.202;2022-09-20T03:23:30;11.60;99.90
3281;DHT22;1652;51.318;6.202;2022-09-20T03:32:17;11.70;99.90
3281;DHT22;1652;51.318;6.202;2022-09-20T03:37:57;11.70;99.90
3281;DHT22;1652;51.318;6.202;2022-09-20T03:40:59;11.70;99.90
3281;DHT22;1652;51.318;6.202;2022-09-20T03:46:29;11.60;99.90
3281;DHT22;1652;51.318;6.202;2022-09-20T03:55:03;11.70;99.90
3281;DHT22;1652;51.318;6.202;2022-09-20T03:57:55;11.60;99.90
3281;DHT22;1652;51.318;6.202;2022-09-20T04:03:26;11.60;99.90
3281;DHT22;1652;51.318;6.202;2022-09-20T04:06:24;11.60;99.90
3281;DHT22;1652;51.318;6.202;2022-09-20T04:15:15;11.60;99.90
3281;DHT22;1652;51.318;6.202;2022-09-20T04:20:36;11.70;99.90
3281;DHT22;1652;51.318;6.202;2022-09-20T04:26:15;11.60;99.90
3281;DHT22;1652;51.318;6.202;2022-09-20T04:31:29;11.60;99.90
3281;DHT22;1652;51.318;6.202;2022-09-20T04:33:59;11.60;99.90
3281;DHT22;1652;51.318;6.202;2022-09-20T04:39:48;11.60;99.90
3281;DHT22;1652;51.318;6.202;2022-09-20T04:50:46;11.70;99.90
3281;DHT22;1652;51.318;6.202;2022-09-20T04:56:50;11.60;99.90
3281;DHT22;1652;51.318;6.202;2022-09-20T04:59:53;11.60;99.90
3281;DHT22;1652;51.318;6.202;2022-09-20T05:20:05;11.50;99.90
3281;DHT22;1652;51.318;6.202;2022-09-20T05:31:14;11.60;99.90
3281;DHT22;1652;51.318;6.202;2022-09-20T05:33:55;11.50;99.90
3281;DHT22;1652;51.318;6.202;2022-09-20T05:39:37;11.50;99.90
3281;DHT22;1652;51.318;6.202;2022-09-20T05:42:32;11.50;99.90
3281;DHT22;1652;51.318;6.202;2022-09-20T05:48:00;11.50;99.90
3281;DHT22;1652;51.318;6.202;2022-09-20T06:00:25;11.70;99.90
3281;DHT22;1652;51.318;6.202;2022-09-20T06:06:11;11.90;99.90
3281;DHT22;1652;51.318;6.202;2022-09-20T06:14:20;12.10;99.90
3281;DHT22;1652;51.318;6.202;2022-09-20T06:22:04;12.30;99.90
3281;DHT22;1652;51.318;6.202;2022-09-20T06:27:14;12.40;99.90
3281;DHT22;1652;51.318;6.202;2022-09-20T06:29:51;12.50;99.90
3281;DHT22;1652;51.318;6.202;2022-09-20T06:32:18;12.60;99.90
3281;DHT22;1652;51.318;6.202;2022-09-20T06:34:46;12.60;99.90
3281;DHT22;1652;51.318;6.202;2022-09-20T06:40:27;12.70;99.90
3281;DHT22;1652;51.318;6.202;2022-09-20T06:43:14;12.70;99.90
3281;DHT22;1652;51.318;6.202;2022-09-20T06:45:41;13.40;99.90
3281;DHT22;1652;51.318;6.202;2022-09-20T06:48:08;14.90;99.90
3281;DHT22;1652;51.318;6.202;2022-09-20T06:50:37;16.10;99.90
3281;DHT22;1652;51.318;6.202;2022-09-20T06:53:04;17.30;95.60
3281;DHT22;1652;51.318;6.202;2022-09-20T06:55:35;18.30;1.00
3281;DHT22;1652;51.318;6.202;2022-09-20T06:58:06;19.20;1.00
3281;DHT22;1652;51.318;6.202;2022-09-20T07:00:35;19.20;1.00
3281;DHT22;1652;51.318;6.202;2022-09-20T07:03:02;18.60;1.00
3281;DHT22;1652;51.318;6.202;2022-09-20T07:05:29;17.60;1.00
3281;DHT22;1652;51.318;6.202;2022-09-20T07:07:57;16.60;1.00
3281;DHT22;1652;51.318;6.202;2022-09-20T07:10:28;16.30;44.90
3281;DHT22;1652;51.318;6.202;2022-09-20T07:12:59;17.30;36.80
3281;DHT22;1652;51.318;6.202;2022-09-20T07:15:27;18.20;1.00
3281;DHT22;1652;51.318;6.202;2022-09-20T07:17:54;18.00;1.00
3281;DHT22;1652;51.318;6.202;2022-09-20T07:20:22;17.70;1.00
3281;DHT22;1652;51.318;6.202;2022-09-20T07:22:49;17.10;1.00
3281;DHT22;1652;51.318;6.202;2022-09-20T07:25:15;16.20;31.80
3281;DHT22;1652;51.318;6.202;2022-09-20T07:27:45;15.90;49.40
3281;DHT22;1652;51.318;6.202;2022-09-20T07:30:16;16.00;48.10
3281;DHT22;1652;51.318;6.202;2022-09-20T07:32:44;16.50;22.00
3281;DHT22;1652;51.318;6.202;2022-09-20T07:35:11;17.00;14.90
3281;DHT22;1652;51.318;6.202;2022-09-20T07:37:38;18.10;1.00
3281;DHT22;1652;51.318;6.202;2022-09-20T07:40:09;19.40;1.00
3281;DHT22;1652;51.318;6.202;2022-09-20T07:42:36;20.30;99.90
3281;DHT22;1652;51.318;6.202;2022-09-20T07:45:04;20.90;99.90
3281;DHT22;1652;51.318;6.202;2022-09-20T07:47:31;21.30;1.00
3281;DHT22;1652;51.318;6.202;2022-09-20T07:49:58;21.30;99.90
3281;DHT22;1652;51.318;6.202;2022-09-20T07:52:25;21.00;1.00
3281;DHT22;1652;51.318;6.202;2022-09-20T07:54:52;20.90;1.00
3281;DHT22;1652;51.318;6.202;2022-09-20T07:57:19;20.20;1.00
3281;DHT22;1652;51.318;6.202;2022-09-20T07:59:46;19.80;99.90
3281;DHT22;1652;51.318;6.202;2022-09-20T08:02:13;19.80;3.30
3281;DHT22;1652;51.318;6.202;2022-09-20T08:04:40;19.40;99.90
3281;DHT22;1652;51.318;6.202;2022-09-20T08:07:07;19.40;99.90
3281;DHT22;1652;51.318;6.202;2022-09-20T08:09:34;19.50;99.90
3281;DHT22;1652;51.318;6.202;2022-09-20T08:12:01;19.60;99.90
3281;DHT22;1652;51.318;6.202;2022-09-20T08:14:48;19.70;1.00
3281;DHT22;1652;51.318;6.202;2022-09-20T08:17:15;19.90;1.00
3281;DHT22;1652;51.318;6.202;2022-09-20T08:19:42;19.80;1.00
3281;DHT22;1652;51.318;6.202;2022-09-20T08:22:10;20.00;99.90
3281;DHT22;1652;51.318;6.202;2022-09-20T08:24:38;20.20;1.00
3281;DHT22;1652;51.318;6.202;2022-09-20T08:27:05;20.50;1.00
3281;DHT22;1652;51.318;6.202;2022-09-20T08:29:31;20.80;99.90
3281;DHT22;1652;51.318;6.202;2022-09-20T08:31:58;20.50;99.90
3281;DHT22;1652;51.318;6.202;2022-09-20T08:34:27;19.80;99.90
3281;DHT22;1652;51.318;6.202;2022-09-20T08:36:54;19.80;1.00
3281;DHT22;1652;51.318;6.202;2022-09-20T08:39:22;19.80;1.00
3281;DHT22;1652;51.318;6.202;2022-09-20T08:42:27;19.70;1.00
3281;DHT22;1652;51.318;6.202;2022-09-20T08:45:02;19.30;1.00
3281;DHT22;1652;51.318;6.202;2022-09-20T08:47:36;19.00;99.90
3281;DHT22;1652;51.318;6.202;2022-09-20T08:50:10;18.90;99.90
3281;DHT22;1652;51.318;6.202;2022-09-20T08:52:45;18.70;1.00
3281;DHT22;1652;51.318;6.202;2022-09-20T08:55:25;18.60;1.00
3281;DHT22;1652;51.318;6.202;2022-09-20T08:58:03;18.60;1.00
3281;DHT22;1652;51.318;6.202;2022-09-20T09:00:36;18.60;1.00
3281;DHT22;1652;51.318;6.202;2022-09-20T09:03:14;18.60;1.00
3281;DHT22;1652;51.318;6.202;2022-09-20T09:05:48;18.30;99.90
3281;DHT22;1652;51.318;6.202;2022-09-20T09:08:23;18.10;99.90
3281;DHT22;1652;51.318;6.202;2022-09-20T09:11:01;18.20;99.90
3281;DHT22;1652;51.318;6.202;2022-09-20T09:14:02;18.20;1.00
3281;DHT22;1652;51.318;6.202;2022-09-20T09:16:32;18.30;90.10
3281;DHT22;1652;51.318;6.202;2022-09-20T09:19:32;18.30;1.00
3281;DHT22;1652;51.318;6.202;2022-09-20T09:22:02;18.10;1.00
3281;DHT22;1652;51.318;6.202;2022-09-20T09:24:29;18.00;1.00
3281;DHT22;1652;51.318;6.202;2022-09-20T09:27:14;17.90;99.90
3281;DHT22;1652;51.318;6.202;2022-09-20T09:29:53;17.60;99.90
3281;DHT22;1652;51.318;6.202;2022-09-20T09:32:30;17.50;99.90
3281;DHT22;1652;51.318;6.202;2022-09-20T09:35:22;17.60;99.90
3281;DHT22;1652;51.318;6.202;2022-09-20T09:37:56;17.80;99.90
3281;DHT22;1652;51.318;6.202;2022-09-20T09:40:23;18.00;99.90
3281;DHT22;1652;51.318;6.202;2022-09-20T09:42:56;18.20;99.90
3281;DHT22;1652;51.318;6.202;2022-09-20T09:45:37;18.10;1.00
3281;DHT22;1652;51.318;6.202;2022-09-20T09:50:49;17.90;99.90
3281;DHT22;1652;51.318;6.202;2022-09-20T09:53:20;17.90;1.00
3281;DHT22;1652;51.318;6.202;2022-09-20T10:04:39;16.20;1.00
3281;DHT22;1652;51.318;6.202;2022-09-20T10:07:15;15.90;6.60
3281;DHT22;1652;51.318;6.202;2022-09-20T10:13:22;15.50;1.00
3281;DHT22;1652;51.318;6.202;2022-09-20T10:16:00;15.50;1.00
3281;DHT22;1652;51.318;6.202;2022-09-20T10:24:19;15.20;1.00
3281;DHT22;1652;51.318;6.202;2022-09-20T10:30:19;14.70;36.80
3281;DHT22;1652;51.318;6.202;2022-09-20T10:35:31;14.40;84.80
3281;DHT22;1652;51.318;6.202;2022-09-20T10:38:23;14.40;91.70
3281;DHT22;1652;51.318;6.202;2022-09-20T10:47:09;14.10;99.90
3281;DHT22;1652;51.318;6.202;2022-09-20T10:50:10;14.20;99.90
3281;DHT22;1652;51.318;6.202;2022-09-20T10:55:40;14.60;96.80
3281;DHT22;1652;51.318;6.202;2022-09-20T11:01:17;14.50;85.10
3281;DHT22;1652;51.318;6.202;2022-09-20T11:04:21;14.40;91.40
3281;DHT22;1652;51.318;6.202;2022-09-20T11:07:21;14.30;99.90
3281;DHT22;1652;51.318;6.202;2022-09-20T11:09:54;14.20;99.90
3281;DHT22;1652;51.318;6.202;2022-09-20T11:12:27;13.90;99.90
3281;DHT22;1652;51.318;6.202;2022-09-20T11:15:03;13.90;99.90
3281;DHT22;1652;51.318;6.202;2022-09-20T11:17:41;13.80;99.90
3281;DHT22;1652;51.318;6.202;2022-09-20T11:20:25;13.70;99.90
3281;DHT22;1652;51.318;6.202;2022-09-20T11:23:07;13.60;99.90
3281;DHT22;1652;51.318;6.202;2022-09-20T11:25:42;13.50;99.90
3281;DHT22;1652;51.318;6.202;2022-09-20T11:28:25;13.50;98.90
3281;DHT22;1652;51.318;6.202;2022-09-20T11:31:09;13.60;93.60
3281;DHT22;1652;51.318;6.202;2022-09-20T11:33:43;13.60;92.30
3281;DHT22;1652;51.318;6.202;2022-09-20T11:36:21;13.60;87.30
3281;DHT22;1652;51.318;6.202;2022-09-20T11:38:52;13.70;67.00
3281;DHT22;1652;51.318;6.202;2022-09-20T11:41:26;13.80;72.20
3281;DHT22;1652;51.318;6.202;2022-09-20T11:44:04;14.00;79.00
3281;DHT22;1652;51.318;6.202;2022-09-20T11:46:39;14.30;91.10
3281;DHT22;1652;51.318;6.202;2022-09-20T11:49:14;14.60;59.10
3281;DHT22;1652;51.318;6.202;2022-09-20T11:54:40;15.30;1.00
3281;DHT22;1652;51.318;6.202;2022-09-20T11:57:14;15.50;1.00
3281;DHT22;1652;51.318;6.202;2022-09-20T11:59:51;15.70;11.80
3281;DHT22;1652;51.318;6.202;2022-09-20T12:02:36;16.10;1.00
3281;DHT22;1652;51.318;6.202;2022-09-20T12:05:05;16.10;1.00
3281;DHT22;1652;51.318;6.202;2022-09-20T12:07:42;16.20;1.00
3281;DHT22;1652;51.318;6.202;2022-09-20T12:10:20;16.00;1.00
3281;DHT22;1652;51.318;6.202;2022-09-20T12:12:48;15.90;1.00
3281;DHT22;1652;51.318;6.202;2022-09-20T12:15:33;16.10;1.00
3281;DHT22;1652;51.318;6.202;2022-09-20T12:18:01;16.40;1.00
3281;DHT22;1652;51.318;6.202;2022-09-20T12:39:27;16.70;1.00
3281;DHT22;1652;51.318;6.202;2022-09-20T12:47:13;16.50;99.90
3281;DHT22;1652;51.318;6.202;2022-09-20T13:06:20;16.40;1.00
3281;DHT22;1652;51.318;6.202;2022-09-20T13:11:47;16.60;1.00
3281;DHT22;1652;51.318;6.202;2022-09-20T13:14:22;16.80;99.90
3281;DHT22;1652;51.318;6.202;2022-09-20T13:19:26;17.20;4.90
3281;DHT22;1652;51.318;6.202;2022-09-20T13:24:23;17.20;99.90
3281;DHT22;1652;51.318;6.202;2022-09-20T13:26:53;17.10;1.00
3281;DHT22;1652;51.318;6.202;2022-09-20T13:29:43;16.90;19.80
3281;DHT22;1652;51.318;6.202;2022-09-20T13:32:17;16.60;99.90
3281;DHT22;1652;51.318;6.202;2022-09-20T13:34:44;16.50;99.90
3281;DHT22;1652;51.318;6.202;2022-09-20T13:37:18;16.30;1.00
3281;DHT22;1652;51.318;6.202;2022-09-20T13:39:52;16.20;1.00
3281;DHT22;1652;51.318;6.202;2022-09-20T13:42:20;16.10;1.00
3281;DHT22;1652;51.318;6.202;2022-09-20T13:44:48;16.20;99.90
3281;DHT22;1652;51.318;6.202;2022-09-20T13:47:29;16.30;99.90
3281;DHT22;1652;51.318;6.202;2022-09-20T13:50:06;16.60;1.00
3281;DHT22;1652;51.318;6.202;2022-09-20T13:52:47;16.70;1.00
3281;DHT22;1652;51.318;6.202;2022-09-20T13:57:55;16.80;1.00
3281;DHT22;1652;51.318;6.202;2022-09-20T14:00:23;17.10;99.90
3281;DHT22;1652;51.318;6.202;2022-09-20T14:02:52;17.20;1.00
3281;DHT22;1652;51.318;6.202;2022-09-20T14:05:27;17.30;1.00
3281;DHT22;1652;51.318;6.202;2022-09-20T14:07:55;17.30;1.00
3281;DHT22;1652;51.318;6.202;2022-09-20T14:10:35;17.30;1.00
3281;DHT22;1652;51.318;6.202;2022-09-20T14:13:06;17.20;99.90
3281;DHT22;1652;51.318;6.202;2022-09-20T14:15:39;16.90;99.90
3281;DHT22;1652;51.318;6.202;2022-09-20T14:18:12;16.80;99.90
3281;DHT22;1652;51.318;6.202;2022-09-20T14:20:41;16.80;99.90
3281;DHT22;1652;51.318;6.202;2022-09-20T14:23:48;16.70;1.00
3281;DHT22;1652;51.318;6.202;2022-09-20T14:28:42;16.60;1.00
3281;DHT22;1652;51.318;6.202;2022-09-20T14:33:47;16.50;99.90
3281;DHT22;1652;51.318;6.202;2022-09-20T14:36:22;16.30;1.00
3281;DHT22;1652;51.318;6.202;2022-09-20T14:39:02;16.20;99.90
3281;DHT22;1652;51.318;6.202;2022-09-20T14:41:34;16.10;1.00
3281;DHT22;1652;51.318;6.202;2022-09-20T14:44:03;16.00;99.90
3281;DHT22;1652;51.318;6.202;2022-09-20T14:46:33;16.00;99.90
3281;DHT22;1652;51.318;6.202;2022-09-20T14:49:28;16.00;1.00
3281;DHT22;1652;51.318;6.202;2022-09-20T14:54:59;15.90;1.00
3281;DHT22;1652;51.318;6.202;2022-09-20T14:57:27;16.00;1.00
3281;DHT22;1652;51.318;6.202;2022-09-20T14:59:54;16.00;99.90
3281;DHT22;1652;51.318;6.202;2022-09-20T15:02:24;16.00;1.00
3281;DHT22;1652;51.318;6.202;2022-09-20T15:04:54;16.00;1.00
3281;DHT22;1652;51.318;6.202;2022-09-20T15:07:24;16.20;99.90
3281;DHT22;1652;51.318;6.202;2022-09-20T15:09:52;16.30;99.90
3281;DHT22;1652;51.318;6.202;2022-09-20T15:12:19;16.50;99.90
3281;DHT22;1652;51.318;6.202;2022-09-20T15:14:47;16.50;1.00
3281;DHT22;1652;51.318;6.202;2022-09-20T15:17:19;16.50;99.90
3281;DHT22;1652;51.318;6.202;2022-09-20T15:19:47;16.40;1.00
3281;DHT22;1652;51.318;6.202;2022-09-20T15:22:15;16.50;1.00
3281;DHT22;1652;51.318;6.202;2022-09-20T15:24:43;16.40;99.90
3281;DHT22;1652;51.318;6.202;2022-09-20T15:27:13;16.50;1.00
3281;DHT22;1652;51.318;6.202;2022-09-20T15:29:40;16.60;87.50
3281;DHT22;1652;51.318;6.202;2022-09-20T15:32:09;16.60;1.00
3281;DHT22;1652;51.318;6.202;2022-09-20T15:34:36;16.60;99.90
3281;DHT22;1652;51.318;6.202;2022-09-20T15:37:03;16.60;1.00
3281;DHT22;1652;51.318;6.202;2022-09-20T15:39:30;16.60;99.90
3281;DHT22;1652;51.318;6.202;2022-09-20T15:41:57;16.70;99.90
3281;DHT22;1652;51.318;6.202;2022-09-20T15:44:24;16.70;72.10
3281;DHT22;1652;51.318;6.202;2022-09-20T15:46:50;16.80;1.00
3281;DHT22;1652;51.318;6.202;2022-09-20T15:49:19;16.80;1.00
3281;DHT22;1652;51.318;6.202;2022-09-20T15:51:47;16.80;99.90
3281;DHT22;1652;51.318;6.202;2022-09-20T15:54:14;16.80;1.00
3281;DHT22;1652;51.318;6.202;2022-09-20T15:56:41;16.80;99.90
3281;DHT22;1652;51.318;6.202;2022-09-20T15:59:09;16.80;1.00
3281;DHT22;1652;51.318;6.202;2022-09-20T16:01:42;16.80;1.00
3281;DHT22;1652;51.318;6.202;2022-09-20T16:04:15;16.80;99.90
3281;DHT22;1652;51.318;6.202;2022-09-20T16:06:46;16.80;1.00
3281;DHT22;1652;51.318;6.202;2022-09-20T16:09:13;16.90;1.00
3281;DHT22;1652;51.318;6.202;2022-09-20T16:11:40;16.70;1.00
3281;DHT22;1652;51.318;6.202;2022-09-20T16:14:07;16.60;99.90
3281;DHT22;1652;51.318;6.202;2022-09-20T16:16:35;16.60;99.90
3281;DHT22;1652;51.318;6.202;2022-09-20T16:19:08;16.50;99.90
3281;DHT22;1652;51.318;6.202;2022-09-20T16:21:48;16.40;1.00
3281;DHT22;1652;51.318;6.202;2022-09-20T16:24:31;16.30;99.90
3281;DHT22;1652;51.318;6.202;2022-09-20T16:26:59;16.30;99.90
3281;DHT22;1652;51.318;6.202;2022-09-20T16:29:27;16.30;1.00
3281;DHT22;1652;51.318;6.202;2022-09-20T16:31:56;16.30;99.90
3281;DHT22;1652;51.318;6.202;2022-09-20T16:34:32;16.40;87.30
3281;DHT22;1652;51.318;6.202;2022-09-20T16:37:04;16.30;99.90
3281;DHT22;1652;51.318;6.202;2022-09-20T16:39:32;16.30;99.90
3281;DHT22;1652;51.318;6.202;2022-09-20T16:42:00;16.20;99.90
3281;DHT22;1652;51.318;6.202;2022-09-20T16:44:31;16.10;1.00
3281;DHT22;1652;51.318;6.202;2022-09-20T16:46:58;16.10;1.00
3281;DHT22;1652;51.318;6.202;2022-09-20T16:49:25;16.00;99.90
3281;DHT22;1652;51.318;6.202;2022-09-20T16:51:55;15.90;1.00
3281;DHT22;1652;51.318;6.202;2022-09-20T16:54:22;15.80;1.00
3281;DHT22;1652;51.318;6.202;2022-09-20T16:56:49;15.70;1.00
3281;DHT22;1652;51.318;6.202;2022-09-20T16:59:18;15.50;94.00
3281;DHT22;1652;51.318;6.202;2022-09-20T17:01:48;15.40;99.90
3281;DHT22;1652;51.318;6.202;2022-09-20T17:04:15;15.30;99.90
3281;DHT22;1652;51.318;6.202;2022-09-20T17:06:44;15.10;1.00
3281;DHT22;1652;51.318;6.202;2022-09-20T17:09:12;15.00;1.00
3281;DHT22;1652;51.318;6.202;2022-09-20T17:11:44;14.90;1.00
3281;DHT22;1652;51.318;6.202;2022-09-20T17:14:13;14.90;1.00
3281;DHT22;1652;51.318;6.202;2022-09-20T17:16:42;14.80;1.00
3281;DHT22;1652;51.318;6.202;2022-09-20T17:19:17;14.60;1.00
3281;DHT22;1652;51.318;6.202;2022-09-20T17:21:46;14.60;1.00
3281;DHT22;1652;51.318;6.202;2022-09-20T17:24:19;14.50;1.00
3281;DHT22;1652;51.318;6.202;2022-09-20T17:26:46;14.40;1.00
3281;DHT22;1652;51.318;6.202;2022-09-20T17:29:15;14.50;1.00
3281;DHT22;1652;51.318;6.202;2022-09-20T17:31:48;14.30;1.00
3281;DHT22;1652;51.318;6.202;2022-09-20T17:34:21;14.10;1.00
3281;DHT22;1652;51.318;6.202;2022-09-20T17:36:49;14.20;1.00
3281;DHT22;1652;51.318;6.202;2022-09-20T17:39:16;14.00;1.00
3281;DHT22;1652;51.318;6.202;2022-09-20T17:41:48;13.90;1.00
3281;DHT22;1652;51.318;6.202;2022-09-20T17:44:15;13.70;1.00
3281;DHT22;1652;51.318;6.202;2022-09-20T17:46:44;13.60;1.00
3281;DHT22;1652;51.318;6.202;2022-09-20T17:49:13;13.50;20.30
3281;DHT22;1652;51.318;6.202;2022-09-20T17:51:45;13.30;32.60
3281;DHT22;1652;51.318;6.202;2022-09-20T17:54:13;13.10;46.50
3281;DHT22;1652;51.318;6.202;2022-09-20T17:56:42;13.10;61.50
3281;DHT22;1652;51.318;6.202;2022-09-20T17:59:10;12.80;55.20
3281;DHT22;1652;51.318;6.202;2022-09-20T18:01:38;12.70;67.20
3281;DHT22;1652;51.318;6.202;2022-09-20T18:04:07;12.70;71.50
3281;DHT22;1652;51.318;6.202;2022-09-20T18:06:39;12.50;85.60
3281;DHT22;1652;51.318;6.202;2022-09-20T18:09:14;12.50;91.40
3281;DHT22;1652;51.318;6.202;2022-09-20T18:11:47;12.50;87.10
3281;DHT22;1652;51.318;6.202;2022-09-20T18:14:17;12.40;91.50
3281;DHT22;1652;51.318;6.202;2022-09-20T18:16:45;12.40;95.10
3281;DHT22;1652;51.318;6.202;2022-09-20T18:19:12;12.30;96.10
3281;DHT22;1652;51.318;6.202;2022-09-20T18:21:42;12.30;99.80
3281;DHT22;1652;51.318;6.202;2022-09-20T18:24:10;12.30;99.90
3281;DHT22;1652;51.318;6.202;2022-09-20T18:26:38;12.30;99.90
3281;DHT22;1652;51.318;6.202;2022-09-20T18:29:14;12.20;99.90
3281;DHT22;1652;51.318;6.202;2022-09-20T18:31:48;12.10;99.90
3281;DHT22;1652;51.318;6.202;2022-09-20T18:34:20;12.10;99.90
3281;DHT22;1652;51.318;6.202;2022-09-20T18:36:52;12.10;99.90
3281;DHT22;1652;51.318;6.202;2022-09-20T18:39:24;12.00;99.90
3281;DHT22;1652;51.318;6.202;2022-09-20T18:41:52;11.90;99.90
3281;DHT22;1652;51.318;6.202;2022-09-20T18:44:20;11.80;99.90
3281;DHT22;1652;51.318;6.202;2022-09-20T18:46:47;11.70;99.90
3281;DHT22;1652;51.318;6.202;2022-09-20T18:49:15;11.60;99.90
3281;DHT22;1652;51.318;6.202;2022-09-20T18:51:42;11.60;99.90
3281;DHT22;1652;51.318;6.202;2022-09-20T18:54:10;11.50;99.90
3281;DHT22;1652;51.318;6.202;2022-09-20T18:56:39;11.50;99.90
3281;DHT22;1652;51.318;6.202;2022-09-20T19:01:45;11.30;99.90
3281;DHT22;1652;51.318;6.202;2022-09-20T19:12:47;11.20;99.90
3281;DHT22;1652;51.318;6.202;2022-09-20T19:26:51;10.90;99.90
3281;DHT22;1652;51.318;6.202;2022-09-20T19:29:20;10.90;99.90
3281;DHT22;1652;51.318;6.202;2022-09-20T19:31:49;11.00;99.90
3281;DHT22;1652;51.318;6.202;2022-09-20T19:34:19;10.90;99.90
3281;DHT22;1652;51.318;6.202;2022-09-20T19:39:25;10.70;99.90
3281;DHT22;1652;51.318;6.202;2022-09-20T19:42:02;10.70;99.90
3281;DHT22;1652;51.318;6.202;2022-09-20T19:52:34;10.60;99.90
3281;DHT22;1652;51.318;6.202;2022-09-20T19:55:01;10.60;99.90
3281;DHT22;1652;51.318;6.202;2022-09-20T19:57:35;10.50;99.90
3281;DHT22;1652;51.318;6.202;2022-09-20T20:00:05;10.40;99.90
3281;DHT22;1652;51.318;6.202;2022-09-20T20:02:35;10.30;99.90
3281;DHT22;1652;51.318;6.202;2022-09-20T20:05:02;10.30;99.90
3281;DHT22;1652;51.318;6.202;2022-09-20T20:10:27;10.30;99.90
3281;DHT22;1652;51.318;6.202;2022-09-20T20:16:05;10.30;99.90
3281;DHT22;1652;51.318;6.202;2022-09-20T20:21:32;10.10;99.90
3281;DHT22;1652;51.318;6.202;2022-09-20T20:26:40;10.00;99.90
3281;DHT22;1652;51.318;6.202;2022-09-20T20:29:08;9.90;99.90
3281;DHT22;1652;51.318;6.202;2022-09-20T20:31:35;9.90;99.90
3281;DHT22;1652;51.318;6.202;2022-09-20T20:34:02;9.90;99.90
3281;DHT22;1652;51.318;6.202;2022-09-20T20:36:29;9.80;99.90
3281;DHT22;1652;51.318;6.202;2022-09-20T20:38:56;9.70;99.90
3281;DHT22;1652;51.318;6.202;2022-09-20T20:41:22;9.70;99.90
3281;DHT22;1652;51.318;6.202;2022-09-20T20:43:52;9.60;99.90
3281;DHT22;1652;51.318;6.202;2022-09-20T20:46:22;9.60;99.90
3281;DHT22;1652;51.318;6.202;2022-09-20T20:48:49;9.60;99.90
3281;DHT22;1652;51.318;6.202;2022-09-20T20:51:20;9.50;99.90
3281;DHT22;1652;51.318;6.202;2022-09-20T20:53:49;9.50;99.90
3281;DHT22;1652;51.318;6.202;2022-09-20T20:56:19;9.50;99.90
3281;DHT22;1652;51.318;6.202;2022-09-20T20:58:47;9.40;99.90
3281;DHT22;1652;51.318;6.202;2022-09-20T21:01:21;9.40;99.90
3281;DHT22;1652;51.318;6.202;2022-09-20T21:03:50;9.40;99.90
3281;DHT22;1652;51.318;6.202;2022-09-20T21:06:18;9.40;99.90
3281;DHT22;1652;51.318;6.202;2022-09-20T21:08:48;9.40;99.90
3281;DHT22;1652;51.318;6.202;2022-09-20T21:11:21;9.40;99.90
3281;DHT22;1652;51.318;6.202;2022-09-20T21:13:51;9.30;99.90
3281;DHT22;1652;51.318;6.202;2022-09-20T21:16:20;9.40;99.90
3281;DHT22;1652;51.318;6.202;2022-09-20T21:18:49;9.30;99.90
3281;DHT22;1652;51.318;6.202;2022-09-20T21:23:44;9.20;99.90
3281;DHT22;1652;51.318;6.202;2022-09-20T21:26:13;9.20;99.90
3281;DHT22;1652;51.318;6.202;2022-09-20T21:28:43;9.20;99.90
3281;DHT22;1652;51.318;6.202;2022-09-20T21:31:12;9.20;99.90
3281;DHT22;1652;51.318;6.202;2022-09-20T21:33:41;9.20;99.90
3281;DHT22;1652;51.318;6.202;2022-09-20T21:36:11;9.30;99.90
3281;DHT22;1652;51.318;6.202;2022-09-20T21:38:42;9.30;99.90
3281;DHT22;1652;51.318;6.202;2022-09-20T21:41:13;9.30;99.90
3281;DHT22;1652;51.318;6.202;2022-09-20T21:43:42;9.20;99.90
3281;DHT22;1652;51.318;6.202;2022-09-20T21:46:14;9.10;99.90
3281;DHT22;1652;51.318;6.202;2022-09-20T21:48:42;9.10;99.90
3281;DHT22;1652;51.318;6.202;2022-09-20T21:51:10;9.00;99.90
3281;DHT22;1652;51.318;6.202;2022-09-20T21:53:37;8.90;99.90
3281;DHT22;1652;51.318;6.202;2022-09-20T21:56:09;9.00;99.90
3281;DHT22;1652;51.318;6.202;2022-09-20T21:58:37;9.00;99.90
3281;DHT22;1652;51.318;6.202;2022-09-20T22:01:16;8.90;99.90
3281;DHT22;1652;51.318;6.202;2022-09-20T22:03:49;8.90;99.90
3281;DHT22;1652;51.318;6.202;2022-09-20T22:06:19;8.90;99.90
3281;DHT22;1652;51.318;6.202;2022-09-20T22:08:51;8.90;99.90
3281;DHT22;1652;51.318;6.202;2022-09-20T22:11:20;8.90;99.90